sensor_id;sensor_type;location;lat;lon;timestamp;temperature;humidity
21123;DHT22;10719;48.130;11.630;2022-08-05T00:01:18;22.80;99.90
21123;DHT22;10719;48.130;11.630;2022-08-05T00:03:47;22.80;99.90
21123;DHT22;10719;48.130;11.630;2022-08-05T00:06:13;22.80;99.90
21123;DHT22;10719;48.130;11.630;2022-08-05T00:08:39;22.60;99.90
21123;DHT22;10719;48.130;11.630;2022-08-05T00:11:08;22.70;99.90
21123;DHT22;10719;48.130;11.630;2022-08-05T00:13:36;22.70;99.90
21123;DHT22;10719;48.130;11.630;2022-08-05T00:16:02;22.60;99.90
21123;DHT22;10719;48.130;11.630;2022-08-05T00:18:28;22.60;99.90
21123;DHT22;10719;48.130;11.630;2022-08-05T00:20:54;22.60;99.90
21123;DHT22;10719;48.130;11.630;2022-08-05T00:23:20;22.50;99.90
21123;DHT22;10719;48.130;11.630;2022-08-05T00:25:46;22.50;99.90
21123;DHT22;10719;48.130;11.630;2022-08-05T00:28:13;22.50;99.90
21123;DHT22;10719;48.130;11.630;2022-08-05T00:30:39;22.40;99.90
21123;DHT22;10719;48.130;11.630;2022-08-05T00:33:04;22.40;99.90
21123;DHT22;10719;48.130;11.630;2022-08-05T00:35:30;22.30;99.90
21123;DHT22;10719;48.130;11.630;2022-08-05T00:37:56;22.40;99.90
21123;DHT22;10719;48.130;11.630;2022-08-05T00:40:23;22.30;99.90
21123;DHT22;10719;48.130;11.630;2022-08-05T00:42:49;22.30;99.90
21123;DHT22;10719;48.130;11.630;2022-08-05T00:45:15;22.40;99.90
21123;DHT22;10719;48.130;11.630;2022-08-05T00:47:41;22.40;99.90
21123;DHT22;10719;48.130;11.630;2022-08-05T00:50:07;22.30;99.90
21123;DHT22;10719;48.130;11.630;2022-08-05T00:52:33;22.20;99.90
21123;DHT22;10719;48.130;11.630;2022-08-05T00:54:58;22.20;99.90
21123;DHT22;10719;48.130;11.630;2022-08-05T00:57:25;22.20;99.90
21123;DHT22;10719;48.130;11.630;2022-08-05T00:59:50;22.10;99.90
21123;DHT22;10719;48.130;11.630;2022-08-05T01:02:16;22.10;99.90
21123;DHT22;10719;48.130;11.630;2022-08-05T01:04:42;22.10;99.90
21123;DHT22;10719;48.130;11.630;2022-08-05T01:07:07;22.00;99.90
21123;DHT22;10719;48.130;11.630;2022-08-05T01:09:33;22.10;99.90
21123;DHT22;10719;48.130;11.630;2022-08-05T01:12:05;22.00;99.90
21123;DHT22;10719;48.130;11.630;2022-08-05T01:17:09;21.90;99.90
21123;DHT22;10719;48.130;11.630;2022-08-05T01:19:44;22.00;99.90
21123;DHT22;10719;48.130;11.630;2022-08-05T01:28:16;21.90;99.90
21123;DHT22;10719;48.130;11.630;2022-08-05T01:30:51;21.90;99.90
21123;DHT22;10719;48.130;11.630;2022-08-05T01:33:26;21.90;99.90
21123;DHT22;10719;48.130;11.630;2022-08-05T01:35:54;21.90;99.90
21123;DHT22;10719;48.130;11.630;2022-08-05T01:38:22;21.90;99.90
21123;DHT22;10719;48.130;11.630;2022-08-05T01:40:50;21.90;99.90
21123;DHT22;10719;48.130;11.630;2022-08-05T01:43:17;21.90;99.90
21123;DHT22;10719;48.130;11.630;2022-08-05T01:45:43;21.90;99.90
21123;DHT22;10719;48.130;11.630;2022-08-05T01:48:10;22.00;99.90
21123;DHT22;10719;48.130;11.630;2022-08-05T01:50:38;21.90;99.90
21123;DHT22;10719;48.130;11.630;2022-08-05T01:53:09;21.90;99.90
21123;DHT22;10719;48.130;11.630;2022-08-05T01:55:36;21.90;99.90
21123;DHT22;10719;48.130;11.630;2022-08-05T01:58:05;21.90;99.90
21123;DHT22;10719;48.130;11.630;2022-08-05T02:00:33;21.90;99.90
21123;DHT22;10719;48.130;11.630;2022-08-05T02:03:11;21.90;99.90
21123;DHT22;10719;48.130;11.630;2022-08-05T02:05:39;22.00;99.90
21123;DHT22;10719;48.130;11.630;2022-08-05T02:08:06;22.00;99.90
21123;DHT22;10719;48.130;11.630;2022-08-05T02:10:42;22.00;99.90
21123;DHT22;10719;48.130;11.630;2022-08-05T02:13:15;22.00;99.90
21123;DHT22;10719;48.130;11.630;2022-08-05T02:15:49;22.00;99.90
21123;DHT22;10719;48.130;11.630;2022-08-05T02:18:19;21.90;99.90
21123;DHT22;10719;48.130;11.630;2022-08-05T02:20:53;21.90;99.90
21123;DHT22;10719;48.130;11.630;2022-08-05T02:23:23;21.90;99.90
21123;DHT22;10719;48.130;11.630;2022-08-05T02:25:51;21.90;99.90
21123;DHT22;10719;48.130;11.630;2022-08-05T02:28:25;21.90;99.90
21123;DHT22;10719;48.130;11.630;2022-08-05T02:31:05;21.90;99.90
21123;DHT22;10719;48.130;11.630;2022-08-05T02:33:36;21.90;99.90
21123;DHT22;10719;48.130;11.630;2022-08-05T02:36:06;21.90;99.90
21123;DHT22;10719;48.130;11.630;2022-08-05T02:38:33;21.90;99.90
21123;DHT22;10719;48.130;11.630;2022-08-05T02:41:00;21.90;99.90
21123;DHT22;10719;48.130;11.630;2022-08-05T02:43:28;21.90;99.90
21123;DHT22;10719;48.130;11.630;2022-08-05T02:45:55;21.80;99.90
21123;DHT22;10719;48.130;11.630;2022-08-05T02:48:23;21.80;99.90
21123;DHT22;10719;48.130;11.630;2022-08-05T02:50:50;21.80;99.90
21123;DHT22;10719;48.130;11.630;2022-08-05T02:53:17;21.70;99.90
21123;DHT22;10719;48.130;11.630;2022-08-05T02:55:49;21.70;99.90
21123;DHT22;10719;48.130;11.630;2022-08-05T02:58:15;21.80;99.90
21123;DHT22;10719;48.130;11.630;2022-08-05T03:00:44;21.70;99.90
21123;DHT22;10719;48.130;11.630;2022-08-05T03:03:13;21.60;99.90
21123;DHT22;10719;48.130;11.630;2022-08-05T03:05:41;21.50;99.90
21123;DHT22;10719;48.130;11.630;2022-08-05T03:08:09;21.50;99.90
21123;DHT22;10719;48.130;11.630;2022-08-05T03:10:35;21.50;99.90
21123;DHT22;10719;48.130;11.630;2022-08-05T03:13:01;21.40;99.90
21123;DHT22;10719;48.130;11.630;2022-08-05T03:15:26;21.40;99.90
21123;DHT22;10719;48.130;11.630;2022-08-05T03:17:53;21.30;99.90
21123;DHT22;10719;48.130;11.630;2022-08-05T03:20:19;21.30;99.90
21123;DHT22;10719;48.130;11.630;2022-08-05T03:22:45;21.30;99.90
21123;DHT22;10719;48.130;11.630;2022-08-05T03:25:10;21.20;99.90
21123;DHT22;10719;48.130;11.630;2022-08-05T03:27:37;21.20;99.90
21123;DHT22;10719;48.130;11.630;2022-08-05T03:30:02;21.10;99.90
21123;DHT22;10719;48.130;11.630;2022-08-05T03:32:29;21.10;99.90
21123;DHT22;10719;48.130;11.630;2022-08-05T03:34:54;21.00;99.90
21123;DHT22;10719;48.130;11.630;2022-08-05T03:37:20;21.00;99.90
21123;DHT22;10719;48.130;11.630;2022-08-05T03:39:57;21.00;99.90
21123;DHT22;10719;48.130;11.630;2022-08-05T03:42:23;20.90;99.90
21123;DHT22;10719;48.130;11.630;2022-08-05T03:44:49;20.90;99.90
21123;DHT22;10719;48.130;11.630;2022-08-05T03:47:15;20.90;99.90
21123;DHT22;10719;48.130;11.630;2022-08-05T03:49:40;20.90;99.90
21123;DHT22;10719;48.130;11.630;2022-08-05T03:52:09;20.90;99.90
21123;DHT22;10719;48.130;11.630;2022-08-05T03:54:52;20.80;99.90
21123;DHT22;10719;48.130;11.630;2022-08-05T03:57:24;20.80;99.90
21123;DHT22;10719;48.130;11.630;2022-08-05T03:59:56;20.80;99.90
21123;DHT22;10719;48.130;11.630;2022-08-05T04:02:28;20.80;99.90
21123;DHT22;10719;48.130;11.630;2022-08-05T04:04:57;20.80;99.90
21123;DHT22;10719;48.130;11.630;2022-08-05T04:07:23;20.80;99.90
21123;DHT22;10719;48.130;11.630;2022-08-05T04:09:49;20.80;99.90
21123;DHT22;10719;48.130;11.630;2022-08-05T04:12:15;20.80;99.90
21123;DHT22;10719;48.130;11.630;2022-08-05T04:14:41;20.80;99.90
21123;DHT22;10719;48.130;11.630;2022-08-05T04:17:08;20.80;99.90
21123;DHT22;10719;48.130;11.630;2022-08-05T04:19:41;20.80;99.90
21123;DHT22;10719;48.130;11.630;2022-08-05T04:22:07;20.70;99.90
21123;DHT22;10719;48.130;11.630;2022-08-05T04:24:33;20.70;99.90
21123;DHT22;10719;48.130;11.630;2022-08-05T04:26:59;20.70;99.90
21123;DHT22;10719;48.130;11.630;2022-08-05T04:29:24;20.80;99.90
21123;DHT22;10719;48.130;11.630;2022-08-05T04:31:50;20.80;99.90
21123;DHT22;10719;48.130;11.630;2022-08-05T04:34:15;20.80;99.90
21123;DHT22;10719;48.130;11.630;2022-08-05T04:36:41;20.80;99.90
21123;DHT22;10719;48.130;11.630;2022-08-05T04:39:06;20.80;99.90
21123;DHT22;10719;48.130;11.630;2022-08-05T04:41:32;20.90;99.90
21123;DHT22;10719;48.130;11.630;2022-08-05T04:43:58;21.10;99.90
21123;DHT22;10719;48.130;11.630;2022-08-05T04:46:23;21.50;99.90
21123;DHT22;10719;48.130;11.630;2022-08-05T04:48:49;21.90;99.90
21123;DHT22;10719;48.130;11.630;2022-08-05T04:51:15;22.10;99.90
21123;DHT22;10719;48.130;11.630;2022-08-05T04:53:42;22.30;99.90
21123;DHT22;10719;48.130;11.630;2022-08-05T04:56:08;22.50;99.90
21123;DHT22;10719;48.130;11.630;2022-08-05T04:58:34;22.60;99.90
21123;DHT22;10719;48.130;11.630;2022-08-05T05:00:59;22.70;99.90
21123;DHT22;10719;48.130;11.630;2022-08-05T05:03:25;22.80;99.90
21123;DHT22;10719;48.130;11.630;2022-08-05T05:05:51;23.00;99.90
21123;DHT22;10719;48.130;11.630;2022-08-05T05:08:16;23.20;99.90
21123;DHT22;10719;48.130;11.630;2022-08-05T05:10:44;23.30;99.90
21123;DHT22;10719;48.130;11.630;2022-08-05T05:13:12;23.50;99.90
21123;DHT22;10719;48.130;11.630;2022-08-05T05:15:39;23.50;99.90
21123;DHT22;10719;48.130;11.630;2022-08-05T05:18:05;23.70;99.90
21123;DHT22;10719;48.130;11.630;2022-08-05T05:20:32;23.70;99.90
21123;DHT22;10719;48.130;11.630;2022-08-05T05:22:58;23.90;99.90
21123;DHT22;10719;48.130;11.630;2022-08-05T05:25:25;24.00;99.90
21123;DHT22;10719;48.130;11.630;2022-08-05T05:27:51;24.10;99.90
21123;DHT22;10719;48.130;11.630;2022-08-05T05:30:17;24.30;99.90
21123;DHT22;10719;48.130;11.630;2022-08-05T05:32:43;24.40;99.90
21123;DHT22;10719;48.130;11.630;2022-08-05T05:35:09;24.50;99.90
21123;DHT22;10719;48.130;11.630;2022-08-05T05:37:54;24.50;99.90
21123;DHT22;10719;48.130;11.630;2022-08-05T05:40:22;24.60;99.90
21123;DHT22;10719;48.130;11.630;2022-08-05T05:42:48;24.70;99.90
21123;DHT22;10719;48.130;11.630;2022-08-05T05:45:14;24.70;99.90
21123;DHT22;10719;48.130;11.630;2022-08-05T05:47:41;24.80;99.90
21123;DHT22;10719;48.130;11.630;2022-08-05T05:50:08;24.80;99.90
21123;DHT22;10719;48.130;11.630;2022-08-05T05:52:34;24.90;99.90
21123;DHT22;10719;48.130;11.630;2022-08-05T05:55:01;25.00;99.90
21123;DHT22;10719;48.130;11.630;2022-08-05T05:57:27;25.00;99.90
21123;DHT22;10719;48.130;11.630;2022-08-05T05:59:52;25.10;99.90
21123;DHT22;10719;48.130;11.630;2022-08-05T06:02:18;25.20;99.90
21123;DHT22;10719;48.130;11.630;2022-08-05T06:04:43;25.30;99.90
21123;DHT22;10719;48.130;11.630;2022-08-05T06:07:09;25.30;99.90
21123;DHT22;10719;48.130;11.630;2022-08-05T06:09:35;25.40;99.90
21123;DHT22;10719;48.130;11.630;2022-08-05T06:12:00;25.50;99.90
21123;DHT22;10719;48.130;11.630;2022-08-05T06:14:26;25.50;99.90
21123;DHT22;10719;48.130;11.630;2022-08-05T06:16:52;25.40;99.90
21123;DHT22;10719;48.130;11.630;2022-08-05T06:19:18;25.50;99.90
21123;DHT22;10719;48.130;11.630;2022-08-05T06:21:43;25.40;99.90
21123;DHT22;10719;48.130;11.630;2022-08-05T06:24:10;25.40;99.90
21123;DHT22;10719;48.130;11.630;2022-08-05T06:26:36;25.30;99.90
21123;DHT22;10719;48.130;11.630;2022-08-05T06:29:01;25.30;99.90
21123;DHT22;10719;48.130;11.630;2022-08-05T06:31:27;25.30;99.90
21123;DHT22;10719;48.130;11.630;2022-08-05T06:33:53;25.40;99.90
21123;DHT22;10719;48.130;11.630;2022-08-05T06:36:19;25.40;99.90
21123;DHT22;10719;48.130;11.630;2022-08-05T06:38:44;25.50;99.90
21123;DHT22;10719;48.130;11.630;2022-08-05T06:41:10;25.60;99.90
21123;DHT22;10719;48.130;11.630;2022-08-05T06:43:36;25.60;99.90
21123;DHT22;10719;48.130;11.630;2022-08-05T06:46:02;25.60;99.90
21123;DHT22;10719;48.130;11.630;2022-08-05T06:48:28;25.70;99.90
21123;DHT22;10719;48.130;11.630;2022-08-05T06:50:53;25.80;99.90
21123;DHT22;10719;48.130;11.630;2022-08-05T06:53:19;25.90;99.90
21123;DHT22;10719;48.130;11.630;2022-08-05T06:55:45;26.00;99.90
21123;DHT22;10719;48.130;11.630;2022-08-05T06:58:10;26.10;99.90
21123;DHT22;10719;48.130;11.630;2022-08-05T07:00:36;26.20;99.90
21123;DHT22;10719;48.130;11.630;2022-08-05T07:03:02;26.30;99.90
21123;DHT22;10719;48.130;11.630;2022-08-05T07:05:27;26.30;99.90
21123;DHT22;10719;48.130;11.630;2022-08-05T07:07:53;26.40;99.90
21123;DHT22;10719;48.130;11.630;2022-08-05T07:10:18;26.40;99.90
21123;DHT22;10719;48.130;11.630;2022-08-05T07:12:44;26.30;99.90
21123;DHT22;10719;48.130;11.630;2022-08-05T07:15:28;26.20;99.90
21123;DHT22;10719;48.130;11.630;2022-08-05T07:18:12;26.10;99.90
21123;DHT22;10719;48.130;11.630;2022-08-05T07:20:38;26.20;99.90
21123;DHT22;10719;48.130;11.630;2022-08-05T07:23:04;26.20;99.90
21123;DHT22;10719;48.130;11.630;2022-08-05T07:25:30;26.10;99.90
21123;DHT22;10719;48.130;11.630;2022-08-05T07:27:55;26.10;99.90
21123;DHT22;10719;48.130;11.630;2022-08-05T07:30:21;26.10;99.90
21123;DHT22;10719;48.130;11.630;2022-08-05T07:32:47;26.20;99.90
21123;DHT22;10719;48.130;11.630;2022-08-05T07:35:13;26.20;99.90
21123;DHT22;10719;48.130;11.630;2022-08-05T07:37:39;26.20;99.90
21123;DHT22;10719;48.130;11.630;2022-08-05T07:40:06;26.20;99.90
21123;DHT22;10719;48.130;11.630;2022-08-05T07:42:32;26.10;99.90
21123;DHT22;10719;48.130;11.630;2022-08-05T07:44:58;26.20;99.90
21123;DHT22;10719;48.130;11.630;2022-08-05T07:47:24;26.00;99.90
21123;DHT22;10719;48.130;11.630;2022-08-05T07:49:50;26.00;99.90
21123;DHT22;10719;48.130;11.630;2022-08-05T07:52:19;26.10;99.90
21123;DHT22;10719;48.130;11.630;2022-08-05T07:54:44;26.00;99.90
21123;DHT22;10719;48.130;11.630;2022-08-05T07:57:10;26.20;99.90
21123;DHT22;10719;48.130;11.630;2022-08-05T07:59:36;26.20;99.90
21123;DHT22;10719;48.130;11.630;2022-08-05T08:02:02;26.20;99.90
21123;DHT22;10719;48.130;11.630;2022-08-05T08:04:28;26.40;99.90
21123;DHT22;10719;48.130;11.630;2022-08-05T08:06:53;26.50;99.90
21123;DHT22;10719;48.130;11.630;2022-08-05T08:09:20;26.50;99.90
21123;DHT22;10719;48.130;11.630;2022-08-05T08:11:46;26.50;99.90
21123;DHT22;10719;48.130;11.630;2022-08-05T08:14:11;26.40;99.90
21123;DHT22;10719;48.130;11.630;2022-08-05T08:16:37;26.40;99.90
21123;DHT22;10719;48.130;11.630;2022-08-05T08:19:02;26.40;99.90
21123;DHT22;10719;48.130;11.630;2022-08-05T08:21:28;26.40;99.90
21123;DHT22;10719;48.130;11.630;2022-08-05T08:23:54;26.50;99.90
21123;DHT22;10719;48.130;11.630;2022-08-05T08:26:20;26.60;99.90
21123;DHT22;10719;48.130;11.630;2022-08-05T08:28:45;26.50;99.90
21123;DHT22;10719;48.130;11.630;2022-08-05T08:31:11;26.60;99.90
21123;DHT22;10719;48.130;11.630;2022-08-05T08:33:36;26.50;99.90
21123;DHT22;10719;48.130;11.630;2022-08-05T08:36:02;26.30;99.90
21123;DHT22;10719;48.130;11.630;2022-08-05T08:38:28;26.40;99.90
21123;DHT22;10719;48.130;11.630;2022-08-05T08:40:53;26.30;99.90
21123;DHT22;10719;48.130;11.630;2022-08-05T08:43:20;26.60;99.90
21123;DHT22;10719;48.130;11.630;2022-08-05T08:45:48;26.80;99.90
21123;DHT22;10719;48.130;11.630;2022-08-05T08:48:14;26.60;99.90
21123;DHT22;10719;48.130;11.630;2022-08-05T08:50:42;26.80;99.90
21123;DHT22;10719;48.130;11.630;2022-08-05T08:53:09;26.80;99.90
21123;DHT22;10719;48.130;11.630;2022-08-05T08:55:37;26.80;99.90
21123;DHT22;10719;48.130;11.630;2022-08-05T08:58:03;26.80;99.90
21123;DHT22;10719;48.130;11.630;2022-08-05T09:00:29;26.70;99.90
21123;DHT22;10719;48.130;11.630;2022-08-05T09:02:56;26.60;99.90
21123;DHT22;10719;48.130;11.630;2022-08-05T09:05:22;26.90;99.90
21123;DHT22;10719;48.130;11.630;2022-08-05T09:07:50;27.00;99.90
21123;DHT22;10719;48.130;11.630;2022-08-05T09:10:17;27.10;99.90
21123;DHT22;10719;48.130;11.630;2022-08-05T09:12:43;27.50;99.90
21123;DHT22;10719;48.130;11.630;2022-08-05T09:15:09;27.70;99.90
21123;DHT22;10719;48.130;11.630;2022-08-05T09:17:35;27.80;99.90
21123;DHT22;10719;48.130;11.630;2022-08-05T09:20:01;28.10;99.90
21123;DHT22;10719;48.130;11.630;2022-08-05T09:22:27;28.30;99.90
21123;DHT22;10719;48.130;11.630;2022-08-05T09:25:00;28.10;99.90
21123;DHT22;10719;48.130;11.630;2022-08-05T09:27:32;27.90;99.90
21123;DHT22;10719;48.130;11.630;2022-08-05T09:29:58;28.00;99.90
21123;DHT22;10719;48.130;11.630;2022-08-05T09:32:37;28.10;99.90
21123;DHT22;10719;48.130;11.630;2022-08-05T09:35:14;28.40;99.90
21123;DHT22;10719;48.130;11.630;2022-08-05T09:37:53;28.30;99.90
21123;DHT22;10719;48.130;11.630;2022-08-05T09:40:38;28.20;99.90
21123;DHT22;10719;48.130;11.630;2022-08-05T09:43:06;28.40;99.90
21123;DHT22;10719;48.130;11.630;2022-08-05T09:45:38;28.90;99.90
21123;DHT22;10719;48.130;11.630;2022-08-05T09:48:24;28.90;99.90
21123;DHT22;10719;48.130;11.630;2022-08-05T09:50:58;29.10;99.90
21123;DHT22;10719;48.130;11.630;2022-08-05T09:53:25;29.30;99.90
21123;DHT22;10719;48.130;11.630;2022-08-05T09:55:57;29.40;99.90
21123;DHT22;10719;48.130;11.630;2022-08-05T09:58:23;29.20;99.90
21123;DHT22;10719;48.130;11.630;2022-08-05T10:00:58;29.20;99.90
21123;DHT22;10719;48.130;11.630;2022-08-05T10:03:24;29.50;99.90
21123;DHT22;10719;48.130;11.630;2022-08-05T10:06:08;29.40;99.90
21123;DHT22;10719;48.130;11.630;2022-08-05T10:08:37;29.20;99.90
21123;DHT22;10719;48.130;11.630;2022-08-05T10:11:12;29.60;99.90
21123;DHT22;10719;48.130;11.630;2022-08-05T10:13:38;29.70;99.90
21123;DHT22;10719;48.130;11.630;2022-08-05T10:16:05;30.00;99.90
21123;DHT22;10719;48.130;11.630;2022-08-05T10:18:32;30.20;99.90
21123;DHT22;10719;48.130;11.630;2022-08-05T10:21:03;30.10;99.90
21123;DHT22;10719;48.130;11.630;2022-08-05T10:23:32;30.60;99.90
21123;DHT22;10719;48.130;11.630;2022-08-05T10:26:00;30.80;99.90
21123;DHT22;10719;48.130;11.630;2022-08-05T10:28:27;30.60;99.90
21123;DHT22;10719;48.130;11.630;2022-08-05T10:30:53;30.50;99.90
21123;DHT22;10719;48.130;11.630;2022-08-05T10:33:20;30.40;99.90
21123;DHT22;10719;48.130;11.630;2022-08-05T10:35:49;30.40;99.90
21123;DHT22;10719;48.130;11.630;2022-08-05T10:38:14;30.30;99.90
21123;DHT22;10719;48.130;11.630;2022-08-05T10:46:07;30.80;99.90
21123;DHT22;10719;48.130;11.630;2022-08-05T10:48:39;30.60;99.90
21123;DHT22;10719;48.130;11.630;2022-08-05T10:51:09;30.40;99.90
21123;DHT22;10719;48.130;11.630;2022-08-05T10:56:17;31.00;99.90
21123;DHT22;10719;48.130;11.630;2022-08-05T10:59:09;30.60;99.90
21123;DHT22;10719;48.130;11.630;2022-08-05T11:01:40;30.90;99.90
21123;DHT22;10719;48.130;11.630;2022-08-05T11:04:14;31.50;99.90
21123;DHT22;10719;48.130;11.630;2022-08-05T11:09:24;32.10;99.90
21123;DHT22;10719;48.130;11.630;2022-08-05T11:11:51;32.00;99.90
21123;DHT22;10719;48.130;11.630;2022-08-05T11:14:32;32.30;99.90
21123;DHT22;10719;48.130;11.630;2022-08-05T11:17:28;32.70;99.90
21123;DHT22;10719;48.130;11.630;2022-08-05T11:19:59;33.30;99.90
21123;DHT22;10719;48.130;11.630;2022-08-05T11:22:45;32.60;99.90
21123;DHT22;10719;48.130;11.630;2022-08-05T11:25:27;32.90;99.90
21123;DHT22;10719;48.130;11.630;2022-08-05T11:27:56;32.60;99.90
21123;DHT22;10719;48.130;11.630;2022-08-05T11:36:17;33.60;99.90
21123;DHT22;10719;48.130;11.630;2022-08-05T11:41:12;33.40;99.90
21123;DHT22;10719;48.130;11.630;2022-08-05T11:43:43;34.10;99.90
21123;DHT22;10719;48.130;11.630;2022-08-05T11:46:08;34.00;99.90
21123;DHT22;10719;48.130;11.630;2022-08-05T11:48:34;34.20;99.90
21123;DHT22;10719;48.130;11.630;2022-08-05T11:51:00;33.60;99.90
21123;DHT22;10719;48.130;11.630;2022-08-05T11:53:27;32.70;99.90
21123;DHT22;10719;48.130;11.630;2022-08-05T11:55:55;32.70;99.90
21123;DHT22;10719;48.130;11.630;2022-08-05T11:58:34;31.20;99.90
21123;DHT22;10719;48.130;11.630;2022-08-05T12:01:04;30.60;99.90
21123;DHT22;10719;48.130;11.630;2022-08-05T12:06:12;31.90;99.90
21123;DHT22;10719;48.130;11.630;2022-08-05T12:08:46;32.60;99.90
21123;DHT22;10719;48.130;11.630;2022-08-05T12:11:22;33.30;99.90
21123;DHT22;10719;48.130;11.630;2022-08-05T12:16:28;31.70;99.90
21123;DHT22;10719;48.130;11.630;2022-08-05T12:18:56;32.10;99.90
21123;DHT22;10719;48.130;11.630;2022-08-05T12:21:27;32.80;99.90
21123;DHT22;10719;48.130;11.630;2022-08-05T12:24:04;32.90;99.90
21123;DHT22;10719;48.130;11.630;2022-08-05T12:29:05;32.80;99.90
21123;DHT22;10719;48.130;11.630;2022-08-05T12:31:31;32.30;99.90
21123;DHT22;10719;48.130;11.630;2022-08-05T12:33:59;31.80;99.90
21123;DHT22;10719;48.130;11.630;2022-08-05T12:36:25;31.80;99.90
21123;DHT22;10719;48.130;11.630;2022-08-05T12:38:50;31.60;99.90
21123;DHT22;10719;48.130;11.630;2022-08-05T12:41:16;31.50;99.90
21123;DHT22;10719;48.130;11.630;2022-08-05T12:43:54;31.70;99.90
21123;DHT22;10719;48.130;11.630;2022-08-05T12:46:25;31.50;99.90
21123;DHT22;10719;48.130;11.630;2022-08-05T12:51:24;32.10;99.90
21123;DHT22;10719;48.130;11.630;2022-08-05T12:53:57;32.30;99.90
21123;DHT22;10719;48.130;11.630;2022-08-05T12:56:24;32.00;99.90
21123;DHT22;10719;48.130;11.630;2022-08-05T12:59:16;31.70;99.90
21123;DHT22;10719;48.130;11.630;2022-08-05T13:01:52;31.70;99.90
21123;DHT22;10719;48.130;11.630;2022-08-05T13:04:19;32.00;99.90
21123;DHT22;10719;48.130;11.630;2022-08-05T13:06:45;31.90;99.90
21123;DHT22;10719;48.130;11.630;2022-08-05T13:09:12;31.90;99.90
21123;DHT22;10719;48.130;11.630;2022-08-05T13:11:42;32.20;99.90
21123;DHT22;10719;48.130;11.630;2022-08-05T13:16:52;33.10;99.90
21123;DHT22;10719;48.130;11.630;2022-08-05T13:19:20;32.80;99.90
21123;DHT22;10719;48.130;11.630;2022-08-05T13:21:47;32.90;99.90
21123;DHT22;10719;48.130;11.630;2022-08-05T13:24:13;32.40;99.90
21123;DHT22;10719;48.130;11.630;2022-08-05T13:26:39;31.90;99.90
21123;DHT22;10719;48.130;11.630;2022-08-05T13:29:04;32.00;99.90
21123;DHT22;10719;48.130;11.630;2022-08-05T13:31:30;31.90;99.90
21123;DHT22;10719;48.130;11.630;2022-08-05T13:33:56;32.00;99.90
21123;DHT22;10719;48.130;11.630;2022-08-05T13:36:21;32.30;99.90
21123;DHT22;10719;48.130;11.630;2022-08-05T13:38:47;33.30;99.90
21123;DHT22;10719;48.130;11.630;2022-08-05T13:41:13;34.00;99.90
21123;DHT22;10719;48.130;11.630;2022-08-05T13:43:40;34.30;99.90
21123;DHT22;10719;48.130;11.630;2022-08-05T13:46:05;34.60;99.90
21123;DHT22;10719;48.130;11.630;2022-08-05T13:48:32;34.80;99.90
21123;DHT22;10719;48.130;11.630;2022-08-05T13:51:11;34.30;99.90
21123;DHT22;10719;48.130;11.630;2022-08-05T13:53:38;34.70;99.90
21123;DHT22;10719;48.130;11.630;2022-08-05T13:56:04;35.40;99.90
21123;DHT22;10719;48.130;11.630;2022-08-05T13:58:30;35.60;99.90
21123;DHT22;10719;48.130;11.630;2022-08-05T14:00:56;35.90;99.90
21123;DHT22;10719;48.130;11.630;2022-08-05T14:03:22;35.90;99.90
21123;DHT22;10719;48.130;11.630;2022-08-05T14:05:47;35.40;99.90
21123;DHT22;10719;48.130;11.630;2022-08-05T14:08:14;33.90;99.90
21123;DHT22;10719;48.130;11.630;2022-08-05T14:10:39;33.90;99.90
21123;DHT22;10719;48.130;11.630;2022-08-05T14:13:05;34.40;99.90
21123;DHT22;10719;48.130;11.630;2022-08-05T14:15:34;35.20;99.90
21123;DHT22;10719;48.130;11.630;2022-08-05T14:18:01;35.20;99.90
21123;DHT22;10719;48.130;11.630;2022-08-05T14:20:27;34.70;99.90
21123;DHT22;10719;48.130;11.630;2022-08-05T14:22:54;34.60;99.90
21123;DHT22;10719;48.130;11.630;2022-08-05T14:25:19;35.80;99.90
21123;DHT22;10719;48.130;11.630;2022-08-05T14:27:46;35.20;99.90
21123;DHT22;10719;48.130;11.630;2022-08-05T14:30:13;35.90;99.90
21123;DHT22;10719;48.130;11.630;2022-08-05T14:32:39;36.10;99.90
21123;DHT22;10719;48.130;11.630;2022-08-05T14:35:05;36.70;99.90
21123;DHT22;10719;48.130;11.630;2022-08-05T14:37:31;36.90;99.90
21123;DHT22;10719;48.130;11.630;2022-08-05T14:39:56;37.10;99.90
21123;DHT22;10719;48.130;11.630;2022-08-05T14:42:22;37.90;99.90
21123;DHT22;10719;48.130;11.630;2022-08-05T14:44:48;37.70;99.00
21123;DHT22;10719;48.130;11.630;2022-08-05T14:47:14;37.50;98.90
21123;DHT22;10719;48.130;11.630;2022-08-05T14:49:39;37.00;99.30
21123;DHT22;10719;48.130;11.630;2022-08-05T14:52:05;36.80;99.20
21123;DHT22;10719;48.130;11.630;2022-08-05T14:54:31;35.40;99.00
21123;DHT22;10719;48.130;11.630;2022-08-05T14:56:57;36.00;99.90
21123;DHT22;10719;48.130;11.630;2022-08-05T14:59:24;36.00;99.90
21123;DHT22;10719;48.130;11.630;2022-08-05T15:01:50;36.40;99.60
21123;DHT22;10719;48.130;11.630;2022-08-05T15:04:19;37.10;99.40
21123;DHT22;10719;48.130;11.630;2022-08-05T15:06:45;37.10;99.10
21123;DHT22;10719;48.130;11.630;2022-08-05T15:09:11;37.00;99.00
21123;DHT22;10719;48.130;11.630;2022-08-05T15:11:36;37.10;97.80
21123;DHT22;10719;48.130;11.630;2022-08-05T15:14:02;36.60;98.20
21123;DHT22;10719;48.130;11.630;2022-08-05T15:16:28;36.60;98.30
21123;DHT22;10719;48.130;11.630;2022-08-05T15:18:54;36.20;99.90
21123;DHT22;10719;48.130;11.630;2022-08-05T15:21:20;35.80;99.40
21123;DHT22;10719;48.130;11.630;2022-08-05T15:23:45;36.00;99.20
21123;DHT22;10719;48.130;11.630;2022-08-05T15:26:11;35.60;99.90
21123;DHT22;10719;48.130;11.630;2022-08-05T15:28:37;35.60;99.40
21123;DHT22;10719;48.130;11.630;2022-08-05T15:31:03;35.00;99.90
21123;DHT22;10719;48.130;11.630;2022-08-05T15:33:29;35.00;99.90
21123;DHT22;10719;48.130;11.630;2022-08-05T15:35:54;34.60;99.90
21123;DHT22;10719;48.130;11.630;2022-08-05T15:38:20;34.10;99.90
21123;DHT22;10719;48.130;11.630;2022-08-05T15:40:46;33.90;99.90
21123;DHT22;10719;48.130;11.630;2022-08-05T15:43:11;33.00;99.90
21123;DHT22;10719;48.130;11.630;2022-08-05T15:45:37;33.00;99.90
21123;DHT22;10719;48.130;11.630;2022-08-05T15:48:06;32.90;99.90
21123;DHT22;10719;48.130;11.630;2022-08-05T15:50:34;33.30;99.90
21123;DHT22;10719;48.130;11.630;2022-08-05T15:52:59;33.20;99.90
21123;DHT22;10719;48.130;11.630;2022-08-05T15:55:25;32.90;99.90
21123;DHT22;10719;48.130;11.630;2022-08-05T15:57:51;32.80;99.90
21123;DHT22;10719;48.130;11.630;2022-08-05T16:00:17;33.30;99.90